KTIW/TIW METAR and TAF weather

Enter ICAO airport designator
Station Type Date Time Source
KTIW METAR 2021/04/14 19:53 UTC NOAA

KTIW 141953Z 01016G22KT 10SM CLR 14/M02 A3016 RMK AO2 SLP212 T01441017


Station Type Date Time Source
KTIW Decoded METAR 2021/04/14 19:53 UTC NOAA

Tacoma, Tacoma Narrows Airport, WA, United States (KTIW) 47-16-03N 122-34-34W 96M
Apr 14, 2021 - 03:53 PM EDT / 2021.04.14 1953 UTC
Wind: from the N (010 degrees) at 18 MPH (16 KT) gusting to 25 MPH (22 KT):0
Visibility: 10 mile(s):0
Sky conditions: clear
Temperature: 57.9 F (14.4 C)
Dew Point: 28.9 F (-1.7 C)
Relative Humidity: 32%
Pressure (altimeter): 30.16 in. Hg (1021 hPa)
ob: KTIW 141953Z 01016G22KT 10SM CLR 14/M02 A3016 RMK AO2 SLP212 T01441017
cycle: 20

Station Type Date Time Source
KTIW TAF UTC NOAA

Error!

Example: see airport list